| time (UTC) | temp C | wind direction | speed KPH | gust KPH | rain 1hr cm | rain 24hr cm | rain mn cm | humidity % | barometer mb |
| 20260505151544 | 19 | 189 | 3.2 | 16.1 | 0.00 | 0.00 | 0.00 | 63 | 1013.2 |
| 20260505150104 | 19 | 215 | 1.6 | 12.9 | 0.00 | 0.00 | 0.00 | 61 | 1013.0 |
| 20260505124537 | 15 | 202 | 0.0 | 1.6 | 0.00 | 0.00 | 0.00 | 79 | 1013.1 |
| 20260505123018 | 13 | 279 | 0.0 | 0.0 | 0.00 | 0.00 | 0.00 | 92 | 1012.9 |
| 20260505121529 | 11 | 300 | 0.0 | 0.0 | 0.00 | 0.00 | 0.00 | 93 | 1012.7 |
| 20260505120015 | 10 | 300 | 0.0 | 0.0 | 0.00 | 0.00 | 0.00 | 92 | 1012.7 |
| 20260505114514 | 10 | 300 | 0.0 | 0.0 | 0.00 | 0.00 | 0.00 | 91 | 1012.7 |
| 20260505113011 | 9 | 300 | 0.0 | 0.0 | 0.00 | 0.00 | 0.00 | 89 | 1012.5 |
| 20260505111506 | 10 | 300 | 0.0 | 0.0 | 0.00 | 0.00 | 0.00 | 88 | 1012.5 |
| 20260505101558 | 11 | 190 | 0.0 | 0.0 | 0.00 | 0.00 | 0.00 | 86 | 1012.0 |
| 20260505100132 | 11 | 191 | 0.0 | 3.2 | 0.00 | 0.00 | 0.00 | 85 | 1011.9 |
| 20260505094552 | 11 | 190 | 0.0 | 3.2 | 0.00 | 0.00 | 0.00 | 84 | 1011.9 |
| 20260505093053 | 11 | 190 | 0.0 | 0.0 | 0.00 | 0.00 | 0.00 | 82 | 1012.1 |
| 20260505091611 | 12 | 190 | 0.0 | 0.0 | 0.00 | 0.00 | 0.00 | 81 | 1012.1 |
| 20260505090056 | 12 | 190 | 0.0 | 0.0 | 0.00 | 0.00 | 0.00 | 79 | 1012.2 |
| 20260505084545 | 13 | 190 | 0.0 | 0.0 | 0.00 | 0.00 | 0.00 | 77 | 1012.0 |
| 20260505083048 | 13 | 190 | 0.0 | 0.0 | 0.00 | 0.00 | 0.00 | 75 | 1011.8 |
| 20260505081542 | 14 | 190 | 0.0 | 0.0 | 0.00 | 0.00 | 0.00 | 74 | 1011.6 |
| 20260505080047 | 15 | 191 | 0.0 | 1.6 | 0.00 | 0.00 | 0.00 | 73 | 1011.4 |
| 20260505074540 | 15 | 173 | 0.0 | 8.0 | 0.00 | 0.00 | 0.00 | 71 | 1011.2 |
| 20260505073043 | 15 | 201 | 0.0 | 9.7 | 0.00 | 0.00 | 0.00 | 71 | 1011.2 |
| 20260505071541 | 15 | 178 | 0.0 | 4.8 | 0.00 | 0.00 | 0.00 | 72 | 1011.3 |
| 20260505070037 | 15 | 194 | 0.0 | 4.8 | 0.00 | 0.00 | 0.00 | 71 | 1011.4 |
| 20260505064534 | 15 | 200 | 0.0 | 3.2 | 0.00 | 0.00 | 0.00 | 71 | 1011.5 |
| 20260505063044 | 15 | 193 | 0.0 | 8.0 | 0.00 | 0.00 | 0.00 | 69 | 1011.5 |
| 20260505061535 | 16 | 192 | 0.0 | 6.4 | 0.00 | 0.00 | 0.00 | 68 | 1011.6 |
| 20260505060032 | 16 | 194 | 0.0 | 12.9 | 0.00 | 0.00 | 0.00 | 67 | 1011.4 |
| 20260505054541 | 16 | 202 | 3.2 | 11.3 | 0.00 | 0.00 | 0.00 | 66 | 1011.2 |
| 20260505053026 | 16 | 158 | 3.2 | 12.9 | 0.00 | 0.00 | 0.00 | 69 | 1011.1 |
| 20260505051534 | 14 | 203 | 1.6 | 9.7 | 0.00 | 0.00 | 0.00 | 79 | 1011.0 |
| 20260505041512 | 13 | 188 | 0.0 | 0.0 | 0.00 | 0.00 | 0.00 | 84 | 1011.0 |
| 20260505040011 | 13 | 188 | 0.0 | 0.0 | 0.00 | 0.00 | 0.00 | 84 | 1011.1 |
| 20260505034511 | 13 | 188 | 0.0 | 0.0 | 0.00 | 0.00 | 0.00 | 84 | 1011.1 |
| 20260505033010 | 13 | 188 | 0.0 | 0.0 | 0.00 | 0.00 | 0.00 | 84 | 1011.1 |
| 20260505031522 | 13 | 188 | 0.0 | 0.0 | 0.00 | 0.00 | 0.00 | 84 | 1011.1 |
| 20260505030009 | 13 | 188 | 0.0 | 0.0 | 0.00 | 0.00 | 0.00 | 83 | 1011.1 |
| 20260505024509 | 13 | 188 | 0.0 | 0.0 | 0.00 | 0.00 | 0.00 | 83 | 1011.3 |
| 20260505023007 | 14 | 189 | 0.0 | 0.0 | 0.00 | 0.00 | 0.00 | 82 | 1011.3 |
| 20260505021508 | 15 | 189 | 0.0 | 0.0 | 0.00 | 0.00 | 0.00 | 81 | 1011.3 |
| 20260505020006 | 15 | 188 | 0.0 | 0.0 | 0.00 | 0.00 | 0.00 | 79 | 1011.3 |
| 20260505014513 | 16 | 188 | 0.0 | 0.0 | 0.00 | 0.00 | 0.00 | 77 | 1011.1 |
| 20260505013005 | 16 | 188 | 0.0 | 0.0 | 0.00 | 0.00 | 0.00 | 75 | 1011.1 |
| 20260505011509 | 17 | 189 | 0.0 | 0.0 | 0.00 | 0.00 | 0.00 | 74 | 1011.0 |
| 20260505010012 | 18 | 188 | 0.0 | 0.0 | 0.00 | 0.00 | 0.00 | 73 | 1010.9 |
| 20260505004505 | 18 | 188 | 0.0 | 0.0 | 0.00 | 0.00 | 0.00 | 72 | 1010.7 |
| 20260505003004 | 19 | 188 | 0.0 | 0.0 | 0.00 | 0.00 | 0.00 | 72 | 1010.6 |
| 20260505001504 | 19 | 188 | 0.0 | 0.0 | 0.00 | 0.00 | 0.00 | 72 | 1010.6 |
| 20260505000005 | 20 | 188 | 0.0 | 0.0 | 0.00 | 0.00 | 0.00 | 72 | 1010.5 |
| 20260504234503 | 21 | 189 | 0.0 | 0.0 | 0.00 | 0.00 | 0.00 | 72 | 1010.4 |
| 20260504233002 | 21 | 188 | 0.0 | 0.0 | 0.00 | 0.00 | 0.00 | 69 | 1010.4 |
| 20260504231501 | 22 | 188 | 0.0 | 0.0 | 0.00 | 0.00 | 0.00 | 63 | 1010.4 |
| 20260504230002 | 22 | 188 | 0.0 | 0.0 | 0.00 | 0.00 | 0.00 | 60 | 1010.4 |
| 20260504224505 | 22 | 188 | 0.0 | 11.3 | 0.00 | 0.00 | 0.00 | 55 | 1010.5 |
| 20260504223112 | 22 | 196 | 0.0 | 9.7 | 0.00 | 0.00 | 0.00 | 59 | 1010.5 |
| 20260504221600 | 23 | 224 | 0.0 | 12.9 | 0.00 | 0.00 | 0.00 | 54 | 1010.5 |
| 20260504214559 | 23 | 207 | 4.8 | 19.3 | 0.00 | 0.00 | 0.00 | 49 | 1010.4 |
| 20260504213103 | 24 | 223 | 8.0 | 16.1 | 0.00 | 0.00 | 0.00 | 47 | 1010.4 |
| 20260504211601 | 25 | 182 | 6.4 | 14.5 | 0.00 | 0.00 | 0.00 | 47 | 1010.5 |
| 20260504204555 | 25 | 166 | 8.0 | 16.1 | 0.00 | 0.00 | 0.00 | 48 | 1010.8 |
| 20260504203050 | 25 | 304 | 0.0 | 16.1 | 0.00 | 0.00 | 0.00 | 50 | 1011.0 |
| 20260504201550 | 25 | 234 | 3.2 | 14.5 | 0.00 | 0.00 | 0.00 | 47 | 1011.1 |
| 20260504200058 | 25 | 178 | 4.8 | 16.1 | 0.00 | 0.00 | 0.00 | 50 | 1011.4 |
| 20260504194545 | 25 | 217 | 6.4 | 17.7 | 0.00 | 0.00 | 0.00 | 50 | 1011.6 |
| 20260504193045 | 25 | 180 | 3.2 | 14.5 | 0.00 | 0.00 | 0.00 | 50 | 1011.9 |
| 20260504191542 | 24 | 171 | 3.2 | 12.9 | 0.00 | 0.00 | 0.00 | 48 | 1012.2 |
| 20260504190040 | 23 | 163 | 3.2 | 12.9 | 0.00 | 0.00 | 0.00 | 49 | 1012.4 |
| 20260504184540 | 24 | 289 | 0.0 | 14.5 | 0.00 | 0.00 | 0.00 | 53 | 1012.5 |
| 20260504183037 | 24 | 204 | 0.0 | 11.3 | 0.00 | 0.00 | 0.00 | 51 | 1012.8 |
| 20260504181532 | 23 | 217 | 0.0 | 11.3 | 0.00 | 0.00 | 0.00 | 54 | 1013.0 |
| 20260504180028 | 22 | 161 | 8.0 | 14.5 | 0.00 | 0.00 | 0.00 | 53 | 1013.3 |
| 20260504174525 | 22 | 187 | 8.0 | 17.7 | 0.00 | 0.00 | 0.00 | 53 | 1013.4 |
| 20260504173021 | 21 | 213 | 1.6 | 11.3 | 0.00 | 0.00 | 0.00 | 54 | 1013.7 |
| 20260504171517 | 21 | 123 | 4.8 | 19.3 | 0.00 | 0.00 | 0.00 | 54 | 1014.0 |